sensor_id;sensor_type;location;lat;lon;timestamp;pressure;altitude;pressure_sealevel;temperature;humidity
47985;BME280;33753;52.912;-7.342;2023-05-03T00:00:13;101079.94;;;10.76;100.00
47985;BME280;33753;52.912;-7.342;2023-05-03T00:02:44;101085.34;;;10.76;100.00
47985;BME280;33753;52.912;-7.342;2023-05-03T00:05:12;101074.53;;;10.76;100.00
47985;BME280;33753;52.912;-7.342;2023-05-03T00:07:41;101080.94;;;10.75;100.00
47985;BME280;33753;52.912;-7.342;2023-05-03T00:10:10;101070.97;;;10.76;100.00
47985;BME280;33753;52.912;-7.342;2023-05-03T00:12:41;101066.88;;;10.71;100.00
47985;BME280;33753;52.912;-7.342;2023-05-03T00:15:10;101068.06;;;10.69;100.00
47985;BME280;33753;52.912;-7.342;2023-05-03T00:17:38;101068.34;;;10.66;100.00
47985;BME280;33753;52.912;-7.342;2023-05-03T00:20:09;101073.22;;;10.62;100.00
47985;BME280;33753;52.912;-7.342;2023-05-03T00:22:38;101073.00;;;10.55;100.00
47985;BME280;33753;52.912;-7.342;2023-05-03T00:25:07;101070.44;;;10.54;100.00
47985;BME280;33753;52.912;-7.342;2023-05-03T00:27:35;101073.31;;;10.52;100.00
47985;BME280;33753;52.912;-7.342;2023-05-03T00:30:04;101073.94;;;10.46;100.00
47985;BME280;33753;52.912;-7.342;2023-05-03T00:32:33;101075.63;;;10.47;100.00
47985;BME280;33753;52.912;-7.342;2023-05-03T00:35:01;101072.94;;;10.47;100.00
47985;BME280;33753;52.912;-7.342;2023-05-03T00:37:31;101075.09;;;10.44;100.00
47985;BME280;33753;52.912;-7.342;2023-05-03T00:39:59;101074.28;;;10.43;100.00
47985;BME280;33753;52.912;-7.342;2023-05-03T00:42:28;101070.00;;;10.41;100.00
47985;BME280;33753;52.912;-7.342;2023-05-03T00:44:56;101067.78;;;10.36;100.00
47985;BME280;33753;52.912;-7.342;2023-05-03T00:47:24;101068.03;;;10.33;100.00
47985;BME280;33753;52.912;-7.342;2023-05-03T00:49:52;101060.06;;;10.31;100.00
47985;BME280;33753;52.912;-7.342;2023-05-03T00:52:20;101065.81;;;10.28;100.00
47985;BME280;33753;52.912;-7.342;2023-05-03T00:54:50;101055.97;;;10.27;100.00
47985;BME280;33753;52.912;-7.342;2023-05-03T00:57:18;101060.88;;;10.24;100.00
47985;BME280;33753;52.912;-7.342;2023-05-03T00:59:48;101065.56;;;10.21;100.00
47985;BME280;33753;52.912;-7.342;2023-05-03T01:02:16;101049.97;;;10.15;100.00
47985;BME280;33753;52.912;-7.342;2023-05-03T01:04:45;101057.41;;;10.13;100.00
47985;BME280;33753;52.912;-7.342;2023-05-03T01:07:15;101047.03;;;10.09;100.00
47985;BME280;33753;52.912;-7.342;2023-05-03T01:09:48;101051.19;;;10.03;100.00
47985;BME280;33753;52.912;-7.342;2023-05-03T01:12:28;101047.88;;;10.09;100.00
47985;BME280;33753;52.912;-7.342;2023-05-03T01:14:59;101048.88;;;10.08;100.00
47985;BME280;33753;52.912;-7.342;2023-05-03T01:17:32;101048.56;;;10.11;100.00
47985;BME280;33753;52.912;-7.342;2023-05-03T01:20:03;101049.28;;;10.13;100.00
47985;BME280;33753;52.912;-7.342;2023-05-03T01:22:36;101059.06;;;10.14;100.00
47985;BME280;33753;52.912;-7.342;2023-05-03T01:25:10;101060.47;;;10.18;100.00
47985;BME280;33753;52.912;-7.342;2023-05-03T01:27:39;101058.78;;;10.17;100.00
47985;BME280;33753;52.912;-7.342;2023-05-03T01:30:08;101057.91;;;10.17;100.00
47985;BME280;33753;52.912;-7.342;2023-05-03T01:32:41;101054.75;;;10.21;100.00
47985;BME280;33753;52.912;-7.342;2023-05-03T01:35:15;101054.63;;;10.23;100.00
47985;BME280;33753;52.912;-7.342;2023-05-03T01:37:46;101059.00;;;10.24;100.00
47985;BME280;33753;52.912;-7.342;2023-05-03T01:40:16;101053.44;;;10.26;100.00
47985;BME280;33753;52.912;-7.342;2023-05-03T01:42:45;101041.09;;;10.23;100.00
47985;BME280;33753;52.912;-7.342;2023-05-03T01:45:14;101049.22;;;10.23;100.00
47985;BME280;33753;52.912;-7.342;2023-05-03T01:47:42;101044.81;;;10.22;100.00
47985;BME280;33753;52.912;-7.342;2023-05-03T01:50:11;101045.78;;;10.21;100.00
47985;BME280;33753;52.912;-7.342;2023-05-03T01:52:39;101046.94;;;10.18;100.00
47985;BME280;33753;52.912;-7.342;2023-05-03T01:55:07;101044.41;;;10.17;100.00
47985;BME280;33753;52.912;-7.342;2023-05-03T01:57:37;101042.84;;;10.14;100.00
47985;BME280;33753;52.912;-7.342;2023-05-03T02:00:05;101032.50;;;10.10;100.00
47985;BME280;33753;52.912;-7.342;2023-05-03T02:02:38;101032.97;;;10.05;100.00
47985;BME280;33753;52.912;-7.342;2023-05-03T02:05:07;101033.28;;;10.02;100.00
47985;BME280;33753;52.912;-7.342;2023-05-03T02:07:36;101031.91;;;9.98;100.00
47985;BME280;33753;52.912;-7.342;2023-05-03T02:10:05;101030.50;;;9.94;100.00
47985;BME280;33753;52.912;-7.342;2023-05-03T02:12:33;101022.00;;;9.89;100.00
47985;BME280;33753;52.912;-7.342;2023-05-03T02:15:03;101020.59;;;9.84;100.00
47985;BME280;33753;52.912;-7.342;2023-05-03T02:17:32;101012.81;;;9.81;100.00
47985;BME280;33753;52.912;-7.342;2023-05-03T02:20:00;101013.81;;;9.80;100.00
47985;BME280;33753;52.912;-7.342;2023-05-03T02:22:31;101009.41;;;9.79;100.00
47985;BME280;33753;52.912;-7.342;2023-05-03T02:24:59;101002.31;;;9.78;100.00
47985;BME280;33753;52.912;-7.342;2023-05-03T02:27:27;101005.00;;;9.78;100.00
47985;BME280;33753;52.912;-7.342;2023-05-03T02:29:56;101008.69;;;9.77;100.00
47985;BME280;33753;52.912;-7.342;2023-05-03T02:32:26;101002.31;;;9.78;100.00
47985;BME280;33753;52.912;-7.342;2023-05-03T02:34:54;101004.00;;;9.79;100.00
47985;BME280;33753;52.912;-7.342;2023-05-03T02:37:23;100997.91;;;9.77;100.00
47985;BME280;33753;52.912;-7.342;2023-05-03T02:39:52;101005.00;;;9.78;100.00
47985;BME280;33753;52.912;-7.342;2023-05-03T02:42:21;101000.59;;;9.77;100.00
47985;BME280;33753;52.912;-7.342;2023-05-03T02:44:49;100999.59;;;9.78;100.00
47985;BME280;33753;52.912;-7.342;2023-05-03T02:47:18;100995.91;;;9.79;100.00
47985;BME280;33753;52.912;-7.342;2023-05-03T02:49:49;100997.63;;;9.80;100.00
47985;BME280;33753;52.912;-7.342;2023-05-03T02:52:17;100993.72;;;9.83;100.00
47985;BME280;33753;52.912;-7.342;2023-05-03T02:54:45;101006.09;;;9.85;100.00
47985;BME280;33753;52.912;-7.342;2023-05-03T02:57:15;100996.69;;;9.90;100.00
47985;BME280;33753;52.912;-7.342;2023-05-03T02:59:43;100990.28;;;9.91;100.00
47985;BME280;33753;52.912;-7.342;2023-05-03T03:02:11;101001.47;;;9.96;100.00
47985;BME280;33753;52.912;-7.342;2023-05-03T03:04:40;101002.31;;;9.96;100.00
47985;BME280;33753;52.912;-7.342;2023-05-03T03:07:10;101004.88;;;9.98;100.00
47985;BME280;33753;52.912;-7.342;2023-05-03T03:09:38;100998.84;;;10.04;100.00
47985;BME280;33753;52.912;-7.342;2023-05-03T03:12:06;101000.53;;;10.05;100.00
47985;BME280;33753;52.912;-7.342;2023-05-03T03:14:35;101008.03;;;10.11;100.00
47985;BME280;33753;52.912;-7.342;2023-05-03T03:17:06;101008.59;;;10.15;100.00
47985;BME280;33753;52.912;-7.342;2023-05-03T03:19:34;101004.00;;;10.15;100.00
47985;BME280;33753;52.912;-7.342;2023-05-03T03:22:02;101002.69;;;10.19;100.00
47985;BME280;33753;52.912;-7.342;2023-05-03T03:24:32;100999.31;;;10.17;100.00
47985;BME280;33753;52.912;-7.342;2023-05-03T03:27:02;101000.94;;;10.10;100.00
47985;BME280;33753;52.912;-7.342;2023-05-03T03:29:30;100994.97;;;10.07;100.00
47985;BME280;33753;52.912;-7.342;2023-05-03T03:32:00;100994.50;;;10.11;100.00
47985;BME280;33753;52.912;-7.342;2023-05-03T03:34:29;100992.84;;;10.10;100.00
47985;BME280;33753;52.912;-7.342;2023-05-03T03:36:58;100999.91;;;10.11;100.00
47985;BME280;33753;52.912;-7.342;2023-05-03T03:39:27;100995.38;;;10.12;100.00
47985;BME280;33753;52.912;-7.342;2023-05-03T03:41:56;101004.16;;;10.14;100.00
47985;BME280;33753;52.912;-7.342;2023-05-03T03:44:25;101000.78;;;10.12;100.00
47985;BME280;33753;52.912;-7.342;2023-05-03T03:46:53;101002.63;;;10.11;100.00
47985;BME280;33753;52.912;-7.342;2023-05-03T03:49:21;100999.59;;;10.14;100.00
47985;BME280;33753;52.912;-7.342;2023-05-03T03:51:50;101003.00;;;10.16;100.00
47985;BME280;33753;52.912;-7.342;2023-05-03T03:54:18;100995.91;;;10.15;100.00
47985;BME280;33753;52.912;-7.342;2023-05-03T03:56:48;100999.31;;;10.17;100.00
47985;BME280;33753;52.912;-7.342;2023-05-03T03:59:19;101003.84;;;10.17;100.00
47985;BME280;33753;52.912;-7.342;2023-05-03T04:01:48;100999.31;;;10.17;100.00
47985;BME280;33753;52.912;-7.342;2023-05-03T04:04:16;100998.28;;;10.18;100.00
47985;BME280;33753;52.912;-7.342;2023-05-03T04:06:45;101000.00;;;10.19;100.00
47985;BME280;33753;52.912;-7.342;2023-05-03T04:09:15;100996.63;;;10.17;100.00
47985;BME280;33753;52.912;-7.342;2023-05-03T04:11:44;100993.91;;;10.17;100.00
47985;BME280;33753;52.912;-7.342;2023-05-03T04:14:13;100992.19;;;10.16;100.00
47985;BME280;33753;52.912;-7.342;2023-05-03T04:16:43;100990.81;;;10.12;100.00
47985;BME280;33753;52.912;-7.342;2023-05-03T04:19:11;100991.34;;;10.16;100.00
47985;BME280;33753;52.912;-7.342;2023-05-03T04:21:41;100988.78;;;10.14;100.00
47985;BME280;33753;52.912;-7.342;2023-05-03T04:24:13;100997.59;;;10.16;100.00
47985;BME280;33753;52.912;-7.342;2023-05-03T04:26:42;100993.19;;;10.15;100.00
47985;BME280;33753;52.912;-7.342;2023-05-03T04:29:17;100988.50;;;10.17;100.00
47985;BME280;33753;52.912;-7.342;2023-05-03T04:31:47;100991.50;;;10.14;100.00
47985;BME280;33753;52.912;-7.342;2023-05-03T04:34:16;100987.44;;;10.10;100.00
47985;BME280;33753;52.912;-7.342;2023-05-03T04:36:47;100988.09;;;10.12;100.00
47985;BME280;33753;52.912;-7.342;2023-05-03T04:39:16;100983.69;;;10.11;100.00
47985;BME280;33753;52.912;-7.342;2023-05-03T04:41:46;100987.44;;;10.10;100.00
47985;BME280;33753;52.912;-7.342;2023-05-03T04:44:14;100983.69;;;10.11;100.00
47985;BME280;33753;52.912;-7.342;2023-05-03T04:46:44;100987.13;;;10.13;100.00
47985;BME280;33753;52.912;-7.342;2023-05-03T04:49:16;100989.09;;;10.11;100.00
47985;BME280;33753;52.912;-7.342;2023-05-03T04:51:44;100993.66;;;10.11;100.00
47985;BME280;33753;52.912;-7.342;2023-05-03T04:54:12;100997.06;;;10.13;100.00
47985;BME280;33753;52.912;-7.342;2023-05-03T04:56:41;100993.50;;;10.12;100.00
47985;BME280;33753;52.912;-7.342;2023-05-03T04:59:14;100993.50;;;10.12;100.00
47985;BME280;33753;52.912;-7.342;2023-05-03T05:01:43;101000.78;;;10.12;100.00
47985;BME280;33753;52.912;-7.342;2023-05-03T05:04:12;100998.91;;;10.12;100.00
47985;BME280;33753;52.912;-7.342;2023-05-03T05:06:46;100999.91;;;10.11;100.00
47985;BME280;33753;52.912;-7.342;2023-05-03T05:09:19;101004.16;;;10.14;100.00
47985;BME280;33753;52.912;-7.342;2023-05-03T05:11:49;101007.03;;;10.12;100.00
47985;BME280;33753;52.912;-7.342;2023-05-03T05:14:19;101001.63;;;10.12;100.00
47985;BME280;33753;52.912;-7.342;2023-05-03T05:16:48;101009.72;;;10.12;100.00
47985;BME280;33753;52.912;-7.342;2023-05-03T05:19:16;101001.63;;;10.12;100.00
47985;BME280;33753;52.912;-7.342;2023-05-03T05:21:46;101005.88;;;10.15;100.00
47985;BME280;33753;52.912;-7.342;2023-05-03T05:24:15;100999.31;;;10.17;100.00
47985;BME280;33753;52.912;-7.342;2023-05-03T05:26:43;101005.25;;;10.21;100.00
47985;BME280;33753;52.912;-7.342;2023-05-03T05:29:13;100997.97;;;10.21;100.00
47985;BME280;33753;52.912;-7.342;2023-05-03T05:31:42;101008.50;;;10.25;100.00
47985;BME280;33753;52.912;-7.342;2023-05-03T05:34:10;101002.94;;;10.26;100.00
47985;BME280;33753;52.912;-7.342;2023-05-03T05:36:39;101014.97;;;10.32;100.00
47985;BME280;33753;52.912;-7.342;2023-05-03T05:39:09;101013.69;;;10.36;100.00
47985;BME280;33753;52.912;-7.342;2023-05-03T05:41:37;101013.38;;;10.39;100.00
47985;BME280;33753;52.912;-7.342;2023-05-03T05:44:05;101021.19;;;10.42;100.00
47985;BME280;33753;52.912;-7.342;2023-05-03T05:46:34;101010.72;;;10.47;100.00
47985;BME280;33753;52.912;-7.342;2023-05-03T05:49:02;101011.25;;;10.51;100.00
47985;BME280;33753;52.912;-7.342;2023-05-03T05:51:31;101013.50;;;10.55;100.00
47985;BME280;33753;52.912;-7.342;2023-05-03T05:53:59;101015.19;;;10.57;100.00
47985;BME280;33753;52.912;-7.342;2023-05-03T05:56:29;101020.84;;;10.63;100.00
47985;BME280;33753;52.912;-7.342;2023-05-03T05:58:57;101016.09;;;10.65;100.00
47985;BME280;33753;52.912;-7.342;2023-05-03T06:01:26;101018.97;;;10.64;100.00
47985;BME280;33753;52.912;-7.342;2023-05-03T06:03:54;101021.91;;;10.70;100.00
47985;BME280;33753;52.912;-7.342;2023-05-03T06:06:23;101018.88;;;10.74;100.00
47985;BME280;33753;52.912;-7.342;2023-05-03T06:08:51;101019.22;;;10.79;100.00
47985;BME280;33753;52.912;-7.342;2023-05-03T06:11:20;101018.06;;;10.81;100.00
47985;BME280;33753;52.912;-7.342;2023-05-03T06:13:50;101026.56;;;10.86;100.00
47985;BME280;33753;52.912;-7.342;2023-05-03T06:16:19;101029.63;;;10.92;100.00
47985;BME280;33753;52.912;-7.342;2023-05-03T06:18:48;101020.19;;;10.96;100.00
47985;BME280;33753;52.912;-7.342;2023-05-03T06:21:17;101020.56;;;11.01;100.00
47985;BME280;33753;52.912;-7.342;2023-05-03T06:23:46;101020.94;;;11.06;100.00
47985;BME280;33753;52.912;-7.342;2023-05-03T06:26:14;101026.84;;;11.10;100.00
47985;BME280;33753;52.912;-7.342;2023-05-03T06:28:44;101027.06;;;11.16;100.00
47985;BME280;33753;52.912;-7.342;2023-05-03T06:31:14;101019.28;;;11.13;100.00
47985;BME280;33753;52.912;-7.342;2023-05-03T06:33:44;101015.06;;;11.19;100.00
47985;BME280;33753;52.912;-7.342;2023-05-03T06:36:15;101012.38;;;11.27;100.00
47985;BME280;33753;52.912;-7.342;2023-05-03T06:38:43;101008.88;;;11.35;100.00
47985;BME280;33753;52.912;-7.342;2023-05-03T06:41:11;101009.88;;;11.34;100.00
47985;BME280;33753;52.912;-7.342;2023-05-03T06:43:40;101004.50;;;11.42;100.00
47985;BME280;33753;52.912;-7.342;2023-05-03T06:46:08;101013.50;;;11.51;100.00
47985;BME280;33753;52.912;-7.342;2023-05-03T06:48:39;101019.44;;;11.54;100.00
47985;BME280;33753;52.912;-7.342;2023-05-03T06:51:07;101012.03;;;11.65;100.00
47985;BME280;33753;52.912;-7.342;2023-05-03T06:53:35;101006.94;;;11.70;100.00
47985;BME280;33753;52.912;-7.342;2023-05-03T06:56:04;101009.00;;;11.84;100.00
47985;BME280;33753;52.912;-7.342;2023-05-03T06:58:32;101012.91;;;11.90;100.00
47985;BME280;33753;52.912;-7.342;2023-05-03T07:01:00;101007.03;;;12.03;100.00
47985;BME280;33753;52.912;-7.342;2023-05-03T07:03:29;101000.78;;;12.10;100.00
47985;BME280;33753;52.912;-7.342;2023-05-03T07:05:59;100997.41;;;12.17;100.00
47985;BME280;33753;52.912;-7.342;2023-05-03T07:08:27;100994.84;;;12.32;100.00
47985;BME280;33753;52.912;-7.342;2023-05-03T07:10:56;100990.78;;;12.36;100.00
47985;BME280;33753;52.912;-7.342;2023-05-03T07:13:25;100986.34;;;12.43;100.00
47985;BME280;33753;52.912;-7.342;2023-05-03T07:15:53;100989.06;;;12.59;100.00
47985;BME280;33753;52.912;-7.342;2023-05-03T07:18:21;100977.53;;;12.57;100.00
47985;BME280;33753;52.912;-7.342;2023-05-03T07:20:49;100970.38;;;12.73;100.00
47985;BME280;33753;52.912;-7.342;2023-05-03T07:23:19;100970.19;;;12.83;100.00
47985;BME280;33753;52.912;-7.342;2023-05-03T07:25:47;100960.16;;;12.83;100.00
47985;BME280;33753;52.912;-7.342;2023-05-03T07:28:15;100957.59;;;12.90;100.00
47985;BME280;33753;52.912;-7.342;2023-05-03T07:30:44;100953.03;;;12.90;100.00
47985;BME280;33753;52.912;-7.342;2023-05-03T07:33:12;100956.41;;;12.92;100.00
47985;BME280;33753;52.912;-7.342;2023-05-03T07:35:41;100947.56;;;12.99;100.00
47985;BME280;33753;52.912;-7.342;2023-05-03T07:38:09;100937.91;;;12.96;100.00
47985;BME280;33753;52.912;-7.342;2023-05-03T07:40:40;100930.84;;;13.18;100.00
47985;BME280;33753;52.912;-7.342;2023-05-03T07:43:08;100931.97;;;13.32;100.00
47985;BME280;33753;52.912;-7.342;2023-05-03T07:45:36;100926.81;;;13.45;100.00
47985;BME280;33753;52.912;-7.342;2023-05-03T07:48:05;100924.19;;;13.60;100.00
47985;BME280;33753;52.912;-7.342;2023-05-03T07:50:33;100910.00;;;13.73;100.00
47985;BME280;33753;52.912;-7.342;2023-05-03T07:53:01;100909.13;;;13.96;100.00
47985;BME280;33753;52.912;-7.342;2023-05-03T07:55:30;100899.38;;;14.25;100.00
47985;BME280;33753;52.912;-7.342;2023-05-03T07:58:00;100895.81;;;14.54;100.00
47985;BME280;33753;52.912;-7.342;2023-05-03T08:00:29;100880.00;;;14.73;100.00
47985;BME280;33753;52.912;-7.342;2023-05-03T08:02:58;100876.66;;;15.07;100.00
47985;BME280;33753;52.912;-7.342;2023-05-03T08:05:28;100871.66;;;15.47;100.00
47985;BME280;33753;52.912;-7.342;2023-05-03T08:07:56;100864.72;;;15.66;100.00
47985;BME280;33753;52.912;-7.342;2023-05-03T08:10:24;100855.75;;;15.94;100.00
47985;BME280;33753;52.912;-7.342;2023-05-03T08:12:52;100849.28;;;16.23;100.00
47985;BME280;33753;52.912;-7.342;2023-05-03T08:15:22;100846.41;;;16.38;100.00
47985;BME280;33753;52.912;-7.342;2023-05-03T08:17:51;100848.31;;;16.80;100.00
47985;BME280;33753;52.912;-7.342;2023-05-03T08:20:19;100839.22;;;17.14;100.00
47985;BME280;33753;52.912;-7.342;2023-05-03T08:22:48;100846.03;;;17.52;100.00
47985;BME280;33753;52.912;-7.342;2023-05-03T08:25:16;100830.91;;;17.83;100.00
47985;BME280;33753;52.912;-7.342;2023-05-03T08:27:45;100834.72;;;18.02;100.00
47985;BME280;33753;52.912;-7.342;2023-05-03T08:30:13;100825.03;;;18.06;100.00
47985;BME280;33753;52.912;-7.342;2023-05-03T08:32:43;100821.50;;;17.92;100.00
47985;BME280;33753;52.912;-7.342;2023-05-03T08:35:11;100826.91;;;17.65;100.00
47985;BME280;33753;52.912;-7.342;2023-05-03T08:37:41;100827.97;;;17.98;100.00
47985;BME280;33753;52.912;-7.342;2023-05-03T08:40:10;100831.34;;;18.20;100.00
47985;BME280;33753;52.912;-7.342;2023-05-03T08:42:40;100827.16;;;17.97;100.00
47985;BME280;33753;52.912;-7.342;2023-05-03T08:45:09;100823.34;;;17.91;100.00
47985;BME280;33753;52.912;-7.342;2023-05-03T08:47:37;100825.66;;;18.14;100.00
47985;BME280;33753;52.912;-7.342;2023-05-03T08:50:08;100831.78;;;18.10;100.00
47985;BME280;33753;52.912;-7.342;2023-05-03T08:52:38;100830.50;;;18.06;100.00
47985;BME280;33753;52.912;-7.342;2023-05-03T08:55:07;100838.88;;;18.44;100.00
47985;BME280;33753;52.912;-7.342;2023-05-03T08:57:36;100834.13;;;18.78;100.00
47985;BME280;33753;52.912;-7.342;2023-05-03T09:00:04;100831.56;;;18.97;100.00
47985;BME280;33753;52.912;-7.342;2023-05-03T09:02:36;100821.03;;;18.94;100.00
47985;BME280;33753;52.912;-7.342;2023-05-03T09:08:00;100826.38;;;19.21;100.00
47985;BME280;33753;52.912;-7.342;2023-05-03T09:10:29;100827.38;;;18.88;100.00
47985;BME280;33753;52.912;-7.342;2023-05-03T09:12:58;100828.72;;;19.10;100.00
47985;BME280;33753;52.912;-7.342;2023-05-03T09:15:27;100828.03;;;19.22;100.00
47985;BME280;33753;52.912;-7.342;2023-05-03T09:18:07;100827.00;;;19.87;100.00
47985;BME280;33753;52.912;-7.342;2023-05-03T09:20:35;100828.50;;;20.26;100.00
47985;BME280;33753;52.912;-7.342;2023-05-03T09:23:06;100825.56;;;20.28;100.00
47985;BME280;33753;52.912;-7.342;2023-05-03T09:25:39;100814.72;;;20.33;100.00
47985;BME280;33753;52.912;-7.342;2023-05-03T09:28:07;100820.38;;;20.57;100.00
47985;BME280;33753;52.912;-7.342;2023-05-03T09:30:35;100815.34;;;20.91;100.00
47985;BME280;33753;52.912;-7.342;2023-05-03T09:33:03;100821.16;;;20.82;100.00
47985;BME280;33753;52.912;-7.342;2023-05-03T09:35:32;100821.28;;;20.69;100.00
47985;BME280;33753;52.912;-7.342;2023-05-03T09:38:00;100819.91;;;20.41;100.00
47985;BME280;33753;52.912;-7.342;2023-05-03T09:40:30;100825.09;;;21.05;100.00
47985;BME280;33753;52.912;-7.342;2023-05-03T09:43:04;100827.72;;;20.81;100.00
47985;BME280;33753;52.912;-7.342;2023-05-03T09:45:34;100828.91;;;21.04;100.00
47985;BME280;33753;52.912;-7.342;2023-05-03T09:48:02;100825.78;;;21.00;100.00
47985;BME280;33753;52.912;-7.342;2023-05-03T09:50:32;100824.22;;;20.74;100.00
47985;BME280;33753;52.912;-7.342;2023-05-03T09:53:01;100822.09;;;21.06;100.00
47985;BME280;33753;52.912;-7.342;2023-05-03T09:55:32;100827.97;;;21.10;100.00
47985;BME280;33753;52.912;-7.342;2023-05-03T09:58:01;100823.59;;;20.91;100.00
47985;BME280;33753;52.912;-7.342;2023-05-03T10:00:35;100830.16;;;20.89;100.00
47985;BME280;33753;52.912;-7.342;2023-05-03T10:03:06;100833.06;;;20.76;100.00
47985;BME280;33753;52.912;-7.342;2023-05-03T10:05:36;100817.78;;;19.99;100.00
47985;BME280;33753;52.912;-7.342;2023-05-03T10:08:07;100823.00;;;19.82;100.00
47985;BME280;33753;52.912;-7.342;2023-05-03T10:10:38;100825.97;;;19.81;100.00
47985;BME280;33753;52.912;-7.342;2023-05-03T10:13:09;100826.16;;;19.54;100.00
47985;BME280;33753;52.912;-7.342;2023-05-03T10:15:38;100842.03;;;19.13;100.00
47985;BME280;33753;52.912;-7.342;2023-05-03T10:18:09;100836.53;;;19.13;100.00
47985;BME280;33753;52.912;-7.342;2023-05-03T10:20:40;100835.28;;;19.09;100.00
47985;BME280;33753;52.912;-7.342;2023-05-03T10:23:11;100835.66;;;19.20;100.00
47985;BME280;33753;52.912;-7.342;2023-05-03T10:26:11;100835.97;;;18.98;100.00
47985;BME280;33753;52.912;-7.342;2023-05-03T10:28:29;100822.63;;;19.08;100.00
47985;BME280;33753;52.912;-7.342;2023-05-03T10:30:57;100824.22;;;18.77;100.00
47985;BME280;33753;52.912;-7.342;2023-05-03T10:33:29;100820.22;;;18.87;100.00
47985;BME280;33753;52.912;-7.342;2023-05-03T10:36:03;100813.25;;;18.77;100.00
47985;BME280;33753;52.912;-7.342;2023-05-03T10:38:32;100813.69;;;18.81;100.00
47985;BME280;33753;52.912;-7.342;2023-05-03T10:41:02;100805.03;;;18.77;100.00
47985;BME280;33753;52.912;-7.342;2023-05-03T10:43:42;100815.41;;;18.69;100.00
47985;BME280;33753;52.912;-7.342;2023-05-03T10:46:29;100807.50;;;18.99;100.00
47985;BME280;33753;52.912;-7.342;2023-05-03T10:51:50;100812.44;;;18.70;100.00
47985;BME280;33753;52.912;-7.342;2023-05-03T10:54:19;100822.19;;;19.11;100.00
47985;BME280;33753;52.912;-7.342;2023-05-03T10:56:49;100809.44;;;18.85;100.00
47985;BME280;33753;52.912;-7.342;2023-05-03T10:59:17;100809.13;;;19.13;100.00
47985;BME280;33753;52.912;-7.342;2023-05-03T11:01:47;100809.81;;;19.34;100.00
47985;BME280;33753;52.912;-7.342;2023-05-03T11:07:00;100816.78;;;19.62;100.00
47985;BME280;33753;52.912;-7.342;2023-05-03T11:09:32;100805.28;;;19.78;100.00
47985;BME280;33753;52.912;-7.342;2023-05-03T11:12:05;100809.06;;;19.84;100.00
47985;BME280;33753;52.912;-7.342;2023-05-03T11:14:34;100804.00;;;19.49;100.00
47985;BME280;33753;52.912;-7.342;2023-05-03T11:17:02;100795.06;;;19.35;100.00
47985;BME280;33753;52.912;-7.342;2023-05-03T11:19:31;100802.03;;;19.31;100.00
47985;BME280;33753;52.912;-7.342;2023-05-03T11:21:59;100797.47;;;19.50;100.00
47985;BME280;33753;52.912;-7.342;2023-05-03T11:24:28;100789.00;;;19.51;100.00
47985;BME280;33753;52.912;-7.342;2023-05-03T11:26:56;100778.28;;;19.75;100.00
47985;BME280;33753;52.912;-7.342;2023-05-03T11:29:26;100786.88;;;19.85;100.00
47985;BME280;33753;52.912;-7.342;2023-05-03T11:31:54;100786.59;;;19.94;100.00
47985;BME280;33753;52.912;-7.342;2023-05-03T11:34:22;100785.38;;;20.08;100.00
47985;BME280;33753;52.912;-7.342;2023-05-03T11:36:51;100793.34;;;20.16;100.00
47985;BME280;33753;52.912;-7.342;2023-05-03T11:39:19;100792.75;;;19.89;100.00
47985;BME280;33753;52.912;-7.342;2023-05-03T11:42:00;100796.41;;;20.27;100.00
47985;BME280;33753;52.912;-7.342;2023-05-03T11:44:31;100791.88;;;20.14;100.00
47985;BME280;33753;52.912;-7.342;2023-05-03T11:47:01;100798.38;;;20.19;100.00
47985;BME280;33753;52.912;-7.342;2023-05-03T11:49:30;100787.19;;;19.96;100.00
47985;BME280;33753;52.912;-7.342;2023-05-03T11:51:58;100793.31;;;19.66;100.00
47985;BME280;33753;52.912;-7.342;2023-05-03T11:54:26;100788.94;;;19.65;100.00
47985;BME280;33753;52.912;-7.342;2023-05-03T11:56:55;100778.31;;;19.68;100.00
47985;BME280;33753;52.912;-7.342;2023-05-03T11:59:35;100789.34;;;19.62;100.00
47985;BME280;33753;52.912;-7.342;2023-05-03T12:02:05;100779.59;;;19.66;100.00
47985;BME280;33753;52.912;-7.342;2023-05-03T12:04:35;100791.00;;;19.69;100.00
47985;BME280;33753;52.912;-7.342;2023-05-03T12:07:08;100774.06;;;19.79;100.00
47985;BME280;33753;52.912;-7.342;2023-05-03T12:09:37;100774.88;;;20.05;100.00
47985;BME280;33753;52.912;-7.342;2023-05-03T12:12:09;100781.16;;;19.87;100.00
47985;BME280;33753;52.912;-7.342;2023-05-03T12:14:54;100768.28;;;20.06;100.00
47985;BME280;33753;52.912;-7.342;2023-05-03T12:17:33;100770.94;;;19.94;100.00
47985;BME280;33753;52.912;-7.342;2023-05-03T12:20:14;100770.25;;;19.99;100.00
47985;BME280;33753;52.912;-7.342;2023-05-03T12:22:47;100755.38;;;19.63;100.00
47985;BME280;33753;52.912;-7.342;2023-05-03T12:25:17;100755.03;;;19.52;100.00
47985;BME280;33753;52.912;-7.342;2023-05-03T12:27:50;100756.94;;;19.52;100.00
47985;BME280;33753;52.912;-7.342;2023-05-03T12:30:40;100743.84;;;19.79;100.00
47985;BME280;33753;52.912;-7.342;2023-05-03T12:33:12;100752.53;;;19.76;100.00
47985;BME280;33753;52.912;-7.342;2023-05-03T12:35:42;100750.25;;;19.92;100.00
47985;BME280;33753;52.912;-7.342;2023-05-03T12:38:13;100744.34;;;19.95;100.00
47985;BME280;33753;52.912;-7.342;2023-05-03T12:40:45;100722.50;;;19.81;100.00
47985;BME280;33753;52.912;-7.342;2023-05-03T12:43:14;100733.97;;;20.15;100.00
47985;BME280;33753;52.912;-7.342;2023-05-03T12:45:44;100735.03;;;20.70;100.00
47985;BME280;33753;52.912;-7.342;2023-05-03T12:48:29;100735.19;;;20.75;100.00
47985;BME280;33753;52.912;-7.342;2023-05-03T12:50:58;100729.41;;;21.07;100.00